createdAt,value
2017-11-08T00:01:22.360Z,953.10
2017-11-08T00:02:22.411Z,953.12
2017-11-08T00:04:15.937Z,953.17
2017-11-08T00:05:15.681Z,953.18
2017-11-08T00:07:10.223Z,953.27
2017-11-08T00:08:10.130Z,953.22
2017-11-08T00:10:03.479Z,953.18
2017-11-08T00:11:03.577Z,953.18
2017-11-08T00:12:57.032Z,953.22
2017-11-08T00:13:56.973Z,953.20
2017-11-08T00:15:51.320Z,953.22
2017-11-08T00:16:51.348Z,953.24
2017-11-08T00:18:45.736Z,953.25
2017-11-08T00:19:45.787Z,953.18
2017-11-08T00:21:39.187Z,953.25
2017-11-08T00:22:39.101Z,953.27
2017-11-08T00:24:33.481Z,953.27
2017-11-08T00:25:33.562Z,953.25
2017-11-08T00:27:28.077Z,953.26
2017-11-08T00:28:27.851Z,953.26
2017-11-08T00:30:22.324Z,953.23
2017-11-08T00:31:22.386Z,953.26
2017-11-08T00:33:15.645Z,953.27
2017-11-08T00:34:15.794Z,953.20
2017-11-08T00:36:09.079Z,953.23
2017-11-08T00:37:09.334Z,953.23
2017-11-08T00:39:02.624Z,953.26
2017-11-08T00:40:02.529Z,953.28
2017-11-08T00:41:56.888Z,953.27
2017-11-08T00:42:57.005Z,953.23
2017-11-08T00:44:50.425Z,953.26
2017-11-08T00:45:50.364Z,953.27
2017-11-08T00:47:43.804Z,953.27
2017-11-08T00:48:43.698Z,953.28
2017-11-08T00:50:37.066Z,953.33
2017-11-08T00:51:37.063Z,953.32
2017-11-08T00:53:31.629Z,953.36
2017-11-08T00:54:31.467Z,953.36
2017-11-08T00:56:24.924Z,953.36
2017-11-08T00:57:24.935Z,953.35
2017-11-08T00:59:18.249Z,953.34
2017-11-08T01:00:18.397Z,953.32
2017-11-08T01:02:12.293Z,953.30
2017-11-08T01:03:11.705Z,953.33
2017-11-08T01:05:05.080Z,953.32
2017-11-08T01:06:05.100Z,953.34
2017-11-08T01:07:58.411Z,953.33
2017-11-08T01:08:58.566Z,953.32
2017-11-08T01:10:51.869Z,953.28
2017-11-08T01:11:51.949Z,953.28
2017-11-08T01:13:46.393Z,953.25
2017-11-08T01:14:46.286Z,953.27
2017-11-08T01:16:39.862Z,953.28
2017-11-08T01:17:39.589Z,953.28
2017-11-08T01:19:34.217Z,953.32
2017-11-08T01:20:34.049Z,953.31
2017-11-08T01:22:28.466Z,953.32
2017-11-08T01:23:28.563Z,953.28
2017-11-08T01:25:21.862Z,953.34
2017-11-08T01:26:21.945Z,953.33
2017-11-08T01:28:16.160Z,953.32
2017-11-08T01:29:16.430Z,953.33
2017-11-08T01:31:10.614Z,953.28
2017-11-08T01:32:10.684Z,953.25
2017-11-08T01:34:04.998Z,953.26
2017-11-08T01:35:05.151Z,953.24
2017-11-08T01:36:58.459Z,953.25
2017-11-08T01:37:58.598Z,953.22
2017-11-08T01:39:51.768Z,953.17
2017-11-08T01:40:51.916Z,953.16
2017-11-08T01:42:45.168Z,953.17
2017-11-08T01:43:45.251Z,953.22
2017-11-08T01:45:39.696Z,953.28
2017-11-08T01:46:39.678Z,953.23
2017-11-08T01:48:34.080Z,953.23
2017-11-08T01:49:34.070Z,953.27
2017-11-08T01:51:28.411Z,953.27
2017-11-08T01:52:28.386Z,953.27
2017-11-08T01:54:22.746Z,953.29
2017-11-08T01:55:22.797Z,953.29
2017-11-08T01:57:16.167Z,953.28
2017-11-08T01:58:16.276Z,953.29
2017-11-08T02:00:10.729Z,953.31
2017-11-08T02:01:10.571Z,953.28
2017-11-08T02:03:04.995Z,953.29
2017-11-08T02:04:05.111Z,953.22
2017-11-08T02:05:59.372Z,953.23
2017-11-08T02:06:59.428Z,953.21
2017-11-08T02:08:54.000Z,953.18
2017-11-08T02:09:53.805Z,953.14
2017-11-08T02:11:47.327Z,953.10
2017-11-08T02:12:47.170Z,953.10
2017-11-08T02:14:40.562Z,953.10
2017-11-08T02:15:40.696Z,953.11
2017-11-08T02:17:34.999Z,953.10
2017-11-08T02:18:35.075Z,953.12
2017-11-08T02:20:29.314Z,953.10
2017-11-08T02:21:29.701Z,953.12
2017-11-08T02:23:23.801Z,953.13
2017-11-08T02:24:23.951Z,953.11
2017-11-08T02:26:17.130Z,953.13
2017-11-08T02:27:17.270Z,953.11
2017-11-08T02:29:10.629Z,953.15
2017-11-08T02:30:10.605Z,953.16
2017-11-08T02:32:03.993Z,953.15
2017-11-08T02:33:03.947Z,953.12
2017-11-08T02:34:57.431Z,953.14
2017-11-08T02:35:57.496Z,953.11
2017-11-08T02:37:51.933Z,953.13
2017-11-08T02:38:51.727Z,953.12
2017-11-08T02:40:46.383Z,953.13
2017-11-08T02:41:46.157Z,953.15
2017-11-08T02:43:40.706Z,953.15
2017-11-08T02:44:40.486Z,953.16
2017-11-08T02:46:33.988Z,953.17
2017-11-08T02:47:33.981Z,953.14
2017-11-08T02:49:27.483Z,953.18
2017-11-08T02:50:27.334Z,953.13
2017-11-08T02:52:21.716Z,953.14
2017-11-08T02:53:21.824Z,953.16
2017-11-08T02:55:15.309Z,953.16
2017-11-08T02:56:15.187Z,953.18
2017-11-08T02:58:10.736Z,953.16
2017-11-08T02:59:10.655Z,953.17
2017-11-08T03:01:04.107Z,953.15
2017-11-08T03:02:04.010Z,953.18
2017-11-08T03:03:57.772Z,953.18
2017-11-08T03:04:57.363Z,953.18
2017-11-08T03:06:51.659Z,953.22
2017-11-08T03:07:51.937Z,953.21
2017-11-08T03:09:45.117Z,953.26
2017-11-08T03:10:45.275Z,953.28
2017-11-08T03:12:38.514Z,953.35
2017-11-08T03:13:38.635Z,953.31
2017-11-08T03:15:33.218Z,953.31
2017-11-08T03:16:32.966Z,953.35
2017-11-08T03:18:26.278Z,953.36
2017-11-08T03:19:26.450Z,953.37
2017-11-08T03:21:20.671Z,953.37
2017-11-08T03:22:21.041Z,953.37
2017-11-08T03:24:14.262Z,953.32
2017-11-08T03:25:14.177Z,953.37
2017-11-08T03:27:08.511Z,953.30
2017-11-08T03:28:08.458Z,953.30
2017-11-08T03:30:01.927Z,953.30
2017-11-08T03:31:02.226Z,953.24
2017-11-08T03:32:57.465Z,953.24
2017-11-08T03:33:57.281Z,953.27
2017-11-08T03:35:51.775Z,953.29
2017-11-08T03:36:51.756Z,953.26
2017-11-08T03:38:46.042Z,953.29
2017-11-08T03:39:54.665Z,953.27
2017-11-08T03:41:39.407Z,953.27
2017-11-08T03:42:39.577Z,953.25
2017-11-08T03:44:34.075Z,953.25
2017-11-08T03:45:33.885Z,953.23
2017-11-08T03:47:28.385Z,953.21
2017-11-08T03:48:28.300Z,953.26
2017-11-08T03:50:22.582Z,953.25
2017-11-08T03:51:22.991Z,953.23
2017-11-08T03:53:17.148Z,953.19
2017-11-08T03:54:17.061Z,953.24
2017-11-08T03:56:10.612Z,953.25
2017-11-08T03:57:10.668Z,953.24
2017-11-08T03:59:04.952Z,953.24
2017-11-08T04:00:04.909Z,953.21
2017-11-08T04:01:58.400Z,953.27
2017-11-08T04:02:58.311Z,953.24
2017-11-08T04:04:51.600Z,953.20
2017-11-08T04:05:51.688Z,953.20
2017-11-08T04:07:45.173Z,953.18
2017-11-08T04:08:45.145Z,953.20
2017-11-08T04:10:39.368Z,953.27
2017-11-08T04:11:39.636Z,953.24
2017-11-08T04:13:33.789Z,953.23
2017-11-08T04:14:34.079Z,953.30
2017-11-08T04:16:27.186Z,953.29
2017-11-08T04:17:27.372Z,953.28
2017-11-08T04:19:20.930Z,953.35
2017-11-08T04:20:20.821Z,953.35
2017-11-08T04:22:15.233Z,953.36
2017-11-08T04:23:15.097Z,953.37
2017-11-08T04:25:09.563Z,953.37
2017-11-08T04:26:09.618Z,953.42
2017-11-08T04:28:02.780Z,953.43
2017-11-08T04:29:02.887Z,953.42
2017-11-08T04:30:57.179Z,953.42
2017-11-08T04:31:57.297Z,953.41
2017-11-08T04:33:51.904Z,953.37
2017-11-08T04:34:51.781Z,953.40
2017-11-08T04:36:46.152Z,953.45
2017-11-08T04:37:46.075Z,953.42
2017-11-08T04:39:39.737Z,953.48
2017-11-08T04:40:39.575Z,953.51
2017-11-08T04:42:33.914Z,953.49
2017-11-08T04:43:41.482Z,953.51
2017-11-08T04:45:28.448Z,953.50
2017-11-08T04:46:28.511Z,953.51
2017-11-08T04:48:22.642Z,953.57
2017-11-08T04:49:22.740Z,953.59
2017-11-08T04:51:17.264Z,953.59
2017-11-08T04:52:17.337Z,953.60
2017-11-08T04:54:10.347Z,953.61
2017-11-08T04:55:10.623Z,953.64
2017-11-08T04:57:04.830Z,953.63
2017-11-08T04:58:05.117Z,953.63
2017-11-08T04:59:59.383Z,953.61
2017-11-08T05:00:59.201Z,953.59
2017-11-08T05:02:52.787Z,953.61
2017-11-08T05:03:52.780Z,953.62
2017-11-08T05:05:47.216Z,953.60
2017-11-08T05:06:54.622Z,953.61
2017-11-08T05:08:41.660Z,953.65
2017-11-08T05:09:41.370Z,953.65
2017-11-08T05:11:35.763Z,953.67
2017-11-08T05:12:35.960Z,953.65
2017-11-08T05:14:29.321Z,953.67
2017-11-08T05:15:29.151Z,953.64
2017-11-08T05:17:22.703Z,953.64
2017-11-08T05:18:22.583Z,953.65
2017-11-08T05:20:16.250Z,953.65
2017-11-08T05:21:16.036Z,953.66
2017-11-08T05:23:10.520Z,953.65
2017-11-08T05:24:10.455Z,953.62
2017-11-08T05:26:11.838Z,953.63
2017-11-08T05:27:11.433Z,953.60
2017-11-08T05:28:58.093Z,953.61
2017-11-08T05:29:58.318Z,953.65
2017-11-08T05:31:51.739Z,953.66
2017-11-08T05:32:51.703Z,953.69
2017-11-08T05:34:44.943Z,953.74
2017-11-08T05:35:45.137Z,953.72
2017-11-08T05:37:38.493Z,953.74
2017-11-08T05:38:38.561Z,953.72
2017-11-08T05:40:31.775Z,953.73
2017-11-08T05:41:31.894Z,953.71
2017-11-08T05:43:25.138Z,953.74
2017-11-08T05:44:25.153Z,953.72
2017-11-08T05:46:19.601Z,953.71
2017-11-08T05:47:28.141Z,953.70
2017-11-08T05:49:12.924Z,953.77
2017-11-08T05:50:13.032Z,953.79
2017-11-08T05:52:06.826Z,953.77
2017-11-08T05:53:06.505Z,953.79
2017-11-08T05:54:59.746Z,953.88
2017-11-08T05:55:59.965Z,953.86
2017-11-08T05:57:54.387Z,953.90
2017-11-08T05:58:54.195Z,953.93
2017-11-08T06:00:47.514Z,953.91
2017-11-08T06:01:47.729Z,953.90
2017-11-08T06:03:41.137Z,953.91
2017-11-08T06:04:41.173Z,953.90
2017-11-08T06:06:35.490Z,953.91
2017-11-08T06:07:35.318Z,953.97
2017-11-08T06:09:28.862Z,954.04
2017-11-08T06:10:28.877Z,954.04
2017-11-08T06:12:23.070Z,954.08
2017-11-08T06:13:23.240Z,954.14
2017-11-08T06:15:16.647Z,954.13
2017-11-08T06:16:16.507Z,954.18
2017-11-08T06:18:09.911Z,954.22
2017-11-08T06:19:09.915Z,954.25
2017-11-08T06:21:03.686Z,954.22
2017-11-08T06:22:03.361Z,954.24
2017-11-08T06:23:56.801Z,954.23
2017-11-08T06:24:56.721Z,954.26
2017-11-08T06:26:51.166Z,954.26
2017-11-08T06:27:51.134Z,954.30
2017-11-08T06:29:45.579Z,954.30
2017-11-08T06:30:45.545Z,954.36
2017-11-08T06:32:39.859Z,954.37
2017-11-08T06:33:39.932Z,954.42
2017-11-08T06:35:33.374Z,954.47
2017-11-08T06:36:33.304Z,954.42
2017-11-08T06:38:26.818Z,954.53
2017-11-08T06:39:26.804Z,954.52
2017-11-08T06:41:20.027Z,954.57
2017-11-08T06:42:20.111Z,954.58
2017-11-08T06:44:13.509Z,954.58
2017-11-08T06:45:13.486Z,954.61
2017-11-08T06:47:06.968Z,954.61
2017-11-08T06:48:06.929Z,954.65
2017-11-08T06:50:01.254Z,954.65
2017-11-08T06:51:01.221Z,954.68
2017-11-08T06:52:54.777Z,954.69
2017-11-08T06:53:54.722Z,954.74
2017-11-08T06:55:48.194Z,954.76
2017-11-08T06:56:48.010Z,954.82
2017-11-08T06:58:41.497Z,954.81
2017-11-08T06:59:41.543Z,954.81
2017-11-08T07:01:35.807Z,954.84
2017-11-08T07:02:35.976Z,954.82
2017-11-08T07:04:29.293Z,954.82
2017-11-08T07:05:29.315Z,954.84
2017-11-08T07:07:23.723Z,954.86
2017-11-08T07:08:23.680Z,954.85
2017-11-08T07:10:17.185Z,954.84
2017-11-08T07:11:17.032Z,954.83
2017-11-08T07:13:11.449Z,954.90
2017-11-08T07:14:11.493Z,954.87
2017-11-08T07:16:05.770Z,954.93
2017-11-08T07:17:05.855Z,955.00
2017-11-08T07:19:00.359Z,954.99
2017-11-08T07:20:07.801Z,954.98
2017-11-08T07:21:53.599Z,955.01
2017-11-08T07:22:53.586Z,955.06
2017-11-08T07:24:46.791Z,955.03
2017-11-08T07:25:46.620Z,955.03
2017-11-08T07:27:40.944Z,955.04
2017-11-08T07:28:40.978Z,955.02
2017-11-08T07:30:34.633Z,955.06
2017-11-08T07:31:34.334Z,955.07
2017-11-08T07:33:27.678Z,955.07
2017-11-08T07:34:27.860Z,955.11
2017-11-08T07:36:22.152Z,955.09
2017-11-08T07:37:22.156Z,955.04
2017-11-08T07:39:16.755Z,955.02
2017-11-08T07:40:16.452Z,955.05
2017-11-08T07:42:09.985Z,955.06
2017-11-08T07:43:09.896Z,955.08
2017-11-08T07:45:03.417Z,955.10
2017-11-08T07:46:03.376Z,955.13
2017-11-08T07:47:57.812Z,955.08
2017-11-08T07:48:57.761Z,955.05
2017-11-08T07:50:51.271Z,955.02
2017-11-08T07:51:51.239Z,955.02
2017-11-08T07:53:44.427Z,954.99
2017-11-08T07:54:44.549Z,954.98
2017-11-08T07:56:37.859Z,954.99
2017-11-08T07:57:37.869Z,954.96
2017-11-08T07:59:32.257Z,955.00
2017-11-08T08:00:32.271Z,955.00
2017-11-08T08:02:25.642Z,955.02
2017-11-08T08:03:25.670Z,955.02
2017-11-08T08:05:19.034Z,955.01
2017-11-08T08:06:19.010Z,955.00
2017-11-08T08:08:12.417Z,955.02
2017-11-08T08:09:12.414Z,955.00
2017-11-08T08:11:05.829Z,954.98
2017-11-08T08:12:05.788Z,954.99
2017-11-08T08:14:00.190Z,955.01
2017-11-08T08:15:00.210Z,955.03
2017-11-08T08:16:53.637Z,955.04
2017-11-08T08:17:53.604Z,955.04
2017-11-08T08:19:46.959Z,955.09
2017-11-08T08:20:46.967Z,955.06
2017-11-08T08:22:40.403Z,955.08
2017-11-08T08:23:40.378Z,955.07
2017-11-08T08:25:33.723Z,955.15
2017-11-08T08:26:33.795Z,955.13
2017-11-08T08:28:27.159Z,955.20
2017-11-08T08:29:27.143Z,955.16
2017-11-08T08:31:20.522Z,955.25
2017-11-08T08:32:20.594Z,955.33
2017-11-08T08:34:14.007Z,955.31
2017-11-08T08:35:13.945Z,955.34
2017-11-08T08:37:08.428Z,955.39
2017-11-08T08:38:08.337Z,955.36
2017-11-08T08:40:01.738Z,955.34
2017-11-08T08:41:01.766Z,955.33
2017-11-08T08:42:55.128Z,955.38
2017-11-08T08:43:55.127Z,955.36
2017-11-08T08:45:48.561Z,955.40
2017-11-08T08:46:48.547Z,955.39
2017-11-08T08:48:41.899Z,955.37
2017-11-08T08:49:41.942Z,955.46
2017-11-08T08:51:35.366Z,955.41
2017-11-08T08:52:35.303Z,955.42
2017-11-08T08:54:28.743Z,955.42
2017-11-08T08:55:28.676Z,955.41
2017-11-08T08:57:22.105Z,955.42
2017-11-08T08:58:22.079Z,955.44
2017-11-08T09:00:15.425Z,955.42
2017-11-08T09:01:15.483Z,955.47
2017-11-08T09:03:08.876Z,955.47
2017-11-08T09:04:08.855Z,955.45
2017-11-08T09:06:02.306Z,955.49
2017-11-08T09:07:02.268Z,955.49
2017-11-08T09:08:55.626Z,955.47
2017-11-08T09:09:55.669Z,955.46
2017-11-08T09:11:50.073Z,955.49
2017-11-08T09:12:50.054Z,955.47
2017-11-08T09:14:43.474Z,955.53
2017-11-08T09:15:43.416Z,955.50
2017-11-08T09:17:36.854Z,955.54
2017-11-08T09:18:36.844Z,955.50
2017-11-08T09:20:30.210Z,955.52
2017-11-08T09:21:30.272Z,955.51
2017-11-08T09:23:24.646Z,955.56
2017-11-08T09:24:24.614Z,955.53
2017-11-08T09:26:18.002Z,955.56
2017-11-08T09:27:18.045Z,955.59
2017-11-08T09:29:11.494Z,955.59
2017-11-08T09:30:11.435Z,955.60
2017-11-08T09:32:04.831Z,955.59
2017-11-08T09:33:04.811Z,955.59
2017-11-08T09:34:58.204Z,955.60
2017-11-08T09:35:58.263Z,955.63
2017-11-08T09:37:51.601Z,955.65
2017-11-08T09:38:51.646Z,955.67
2017-11-08T09:40:45.021Z,955.64
2017-11-08T09:41:45.007Z,955.64
2017-11-08T09:43:38.393Z,955.68
2017-11-08T09:44:38.453Z,955.67
2017-11-08T09:46:31.796Z,955.71
2017-11-08T09:47:31.817Z,955.75
2017-11-08T09:49:25.185Z,955.76
2017-11-08T09:50:25.225Z,955.78
2017-11-08T09:52:18.617Z,955.78
2017-11-08T09:53:18.610Z,955.78
2017-11-08T09:55:12.039Z,955.79
2017-11-08T09:56:12.092Z,955.81
2017-11-08T09:58:06.566Z,955.78
2017-11-08T09:59:06.363Z,955.83
2017-11-08T10:00:59.307Z,955.86
2017-11-08T10:01:59.388Z,955.87
2017-11-08T10:03:52.681Z,955.89
2017-11-08T10:04:52.748Z,955.88
2017-11-08T10:06:46.089Z,955.92
2017-11-08T10:07:46.081Z,955.92
2017-11-08T10:09:39.586Z,955.94
2017-11-08T10:10:39.585Z,955.94
2017-11-08T10:12:32.929Z,955.94
2017-11-08T10:13:32.967Z,955.92
2017-11-08T10:15:26.362Z,955.97
2017-11-08T10:16:26.321Z,955.98
2017-11-08T10:18:20.708Z,956.02
2017-11-08T10:19:20.781Z,956.09
2017-11-08T10:21:14.175Z,956.06
2017-11-08T10:22:14.155Z,956.06
2017-11-08T10:24:07.556Z,956.06
2017-11-08T10:25:07.559Z,956.04
2017-11-08T10:27:00.942Z,956.04
2017-11-08T10:28:00.917Z,956.07
2017-11-08T10:29:54.414Z,956.05
2017-11-08T10:30:54.386Z,956.03
2017-11-08T10:32:47.767Z,956.07
2017-11-08T10:33:47.763Z,956.06
2017-11-08T10:35:41.139Z,956.00
2017-11-08T10:36:41.180Z,956.03
2017-11-08T10:38:35.609Z,956.04
2017-11-08T10:39:35.634Z,955.99
2017-11-08T10:41:28.925Z,955.98
2017-11-08T10:42:29.378Z,955.94
2017-11-08T10:44:23.321Z,955.94
2017-11-08T10:45:23.288Z,955.90
2017-11-08T10:47:17.707Z,955.85
2017-11-08T10:48:17.640Z,955.88
2017-11-08T10:50:11.072Z,955.84
2017-11-08T10:51:11.053Z,955.85
2017-11-08T10:53:04.510Z,955.87
2017-11-08T10:54:04.489Z,955.83
2017-11-08T10:55:58.892Z,955.84
2017-11-08T10:56:58.869Z,955.84
2017-11-08T10:58:52.312Z,955.84
2017-11-08T10:59:52.278Z,955.82
2017-11-08T11:01:45.687Z,955.83
2017-11-08T11:02:45.727Z,955.84
2017-11-08T11:04:40.167Z,955.85
2017-11-08T11:05:40.163Z,955.82
2017-11-08T11:07:33.561Z,955.81
2017-11-08T11:08:33.509Z,955.84
2017-11-08T11:10:26.910Z,955.77
2017-11-08T11:11:26.901Z,955.75
2017-11-08T11:13:21.325Z,955.79
2017-11-08T11:14:21.325Z,955.78
2017-11-08T11:16:14.730Z,955.79
2017-11-08T11:17:14.726Z,955.83
2017-11-08T11:19:08.192Z,955.83
2017-11-08T11:20:08.143Z,955.86
2017-11-08T11:22:02.534Z,955.86
2017-11-08T11:23:02.531Z,955.86
2017-11-08T11:24:56.956Z,955.82
2017-11-08T11:25:56.884Z,955.88
2017-11-08T11:27:50.317Z,955.91
2017-11-08T11:28:50.310Z,955.89
2017-11-08T11:30:44.731Z,955.95
2017-11-08T11:31:44.715Z,955.99
2017-11-08T11:33:38.173Z,955.93
2017-11-08T11:34:45.780Z,955.95
2017-11-08T11:36:31.553Z,955.91
2017-11-08T11:37:31.544Z,955.95
2017-11-08T11:39:24.945Z,955.95
2017-11-08T11:40:24.934Z,955.93
2017-11-08T11:42:18.315Z,955.98
2017-11-08T11:43:18.357Z,955.96
2017-11-08T11:45:11.717Z,955.98
2017-11-08T11:46:11.728Z,956.00
2017-11-08T11:48:05.123Z,955.99
2017-11-08T11:49:05.097Z,955.98
2017-11-08T11:50:59.541Z,956.02
2017-11-08T11:51:59.580Z,956.04
2017-11-08T11:53:53.030Z,956.04
2017-11-08T11:54:52.960Z,956.06
2017-11-08T11:56:47.351Z,956.05
2017-11-08T11:57:47.332Z,956.05
2017-11-08T11:59:40.672Z,956.04
2017-11-08T12:00:40.736Z,956.02
2017-11-08T12:02:35.153Z,956.03
2017-11-08T12:03:35.129Z,956.03
2017-11-08T12:05:29.582Z,956.01
2017-11-08T12:06:29.582Z,956.01
2017-11-08T12:08:22.960Z,955.98
2017-11-08T12:09:22.947Z,956.00
2017-11-08T12:11:16.361Z,956.01
2017-11-08T12:12:16.351Z,956.00
2017-11-08T12:14:09.837Z,956.04
2017-11-08T12:15:09.786Z,956.03
2017-11-08T12:17:03.159Z,956.03
2017-11-08T12:18:03.157Z,956.04
2017-11-08T12:19:57.531Z,956.01
2017-11-08T12:20:57.577Z,955.99
2017-11-08T12:22:51.005Z,955.97
2017-11-08T12:23:50.940Z,955.96
2017-11-08T12:25:44.389Z,955.96
2017-11-08T12:26:44.358Z,955.96
2017-11-08T12:28:37.734Z,956.01
2017-11-08T12:29:37.729Z,956.00
2017-11-08T12:31:31.204Z,956.04
2017-11-08T12:32:31.452Z,956.05
2017-11-08T12:34:24.571Z,956.03
2017-11-08T12:35:24.498Z,956.04
2017-11-08T12:37:17.954Z,956.01
2017-11-08T12:38:17.953Z,956.01
2017-11-08T12:40:12.394Z,956.06
2017-11-08T12:41:12.350Z,956.12
2017-11-08T12:43:05.776Z,956.10
2017-11-08T12:44:06.216Z,956.13
2017-11-08T12:45:59.132Z,956.11
2017-11-08T12:46:59.167Z,956.15
2017-11-08T12:48:52.461Z,956.13
2017-11-08T12:49:52.520Z,956.17
2017-11-08T12:51:46.986Z,956.16
2017-11-08T12:52:46.988Z,956.18
2017-11-08T12:54:40.363Z,956.18
2017-11-08T12:55:40.343Z,956.19
2017-11-08T12:57:33.693Z,956.21
2017-11-08T12:58:33.831Z,956.22
2017-11-08T13:00:27.148Z,956.23
2017-11-08T13:01:27.110Z,956.25
2017-11-08T13:03:21.549Z,956.23
2017-11-08T13:04:21.535Z,956.26
2017-11-08T13:06:14.994Z,956.30
2017-11-08T13:07:14.914Z,956.30
2017-11-08T13:09:08.404Z,956.35
2017-11-08T13:10:08.446Z,956.35
2017-11-08T13:12:01.792Z,956.31
2017-11-08T13:13:01.737Z,956.34
2017-11-08T13:14:55.149Z,956.35
2017-11-08T13:15:55.119Z,956.40
2017-11-08T13:17:49.485Z,956.38
2017-11-08T13:18:49.571Z,956.40
2017-11-08T13:20:42.997Z,956.39
2017-11-08T13:21:42.929Z,956.42
2017-11-08T13:23:36.456Z,956.40
2017-11-08T13:24:44.182Z,956.45
2017-11-08T13:26:39.081Z,956.42
2017-11-08T13:27:30.750Z,956.40
2017-11-08T13:29:25.145Z,956.40
2017-11-08T13:30:25.119Z,956.41
2017-11-08T13:32:18.458Z,956.42
2017-11-08T13:33:18.530Z,956.40
2017-11-08T13:35:12.250Z,956.40
2017-11-08T13:36:12.440Z,956.42
2017-11-08T13:38:08.157Z,956.45
2017-11-08T13:39:08.133Z,956.45
2017-11-08T13:41:01.881Z,956.49
2017-11-08T13:42:01.726Z,956.50
2017-11-08T13:43:55.033Z,956.50
2017-11-08T13:44:55.081Z,956.52
2017-11-08T13:46:48.654Z,956.57
2017-11-08T13:47:48.417Z,956.61
2017-11-08T13:49:41.876Z,956.57
2017-11-08T13:50:41.902Z,956.60
2017-11-08T13:52:35.541Z,956.71
2017-11-08T13:53:35.781Z,956.73
2017-11-08T13:55:28.612Z,956.70
2017-11-08T13:56:28.593Z,956.71
2017-11-08T13:58:21.917Z,956.70
2017-11-08T13:59:21.951Z,956.69
2017-11-08T14:01:15.368Z,956.68
2017-11-08T14:02:15.331Z,956.69
2017-11-08T14:04:08.780Z,956.66
2017-11-08T14:05:08.735Z,956.69
2017-11-08T14:07:02.329Z,956.69
2017-11-08T14:08:02.544Z,956.67
2017-11-08T14:09:55.587Z,956.71
2017-11-08T14:10:55.602Z,956.72
2017-11-08T14:12:56.518Z,956.71
2017-11-08T14:13:48.922Z,956.73
2017-11-08T14:15:42.355Z,956.76
2017-11-08T14:16:42.308Z,956.78
2017-11-08T14:18:35.850Z,956.77
2017-11-08T14:19:36.036Z,956.80
2017-11-08T14:21:29.120Z,956.78
2017-11-08T14:22:29.138Z,956.80
2017-11-08T14:24:22.531Z,956.85
2017-11-08T14:25:22.507Z,956.79
2017-11-08T14:27:15.938Z,956.76
2017-11-08T14:28:15.953Z,956.78
2017-11-08T14:30:09.296Z,956.78
2017-11-08T14:31:09.302Z,956.76
2017-11-08T14:33:02.744Z,956.75
2017-11-08T14:34:02.687Z,956.77
2017-11-08T14:35:56.054Z,956.78
2017-11-08T14:36:56.111Z,956.77
2017-11-08T14:38:50.532Z,956.77
2017-11-08T14:39:50.548Z,956.78
2017-11-08T14:41:43.896Z,956.77
2017-11-08T14:42:43.881Z,956.81
2017-11-08T14:44:38.351Z,956.80
2017-11-08T14:45:38.344Z,956.76
2017-11-08T14:47:31.659Z,956.79
2017-11-08T14:48:31.681Z,956.80
2017-11-08T14:50:25.054Z,956.85
2017-11-08T14:51:25.040Z,956.83
2017-11-08T14:53:18.429Z,956.84
2017-11-08T14:54:18.449Z,956.80
2017-11-08T14:56:19.578Z,956.83
2017-11-08T14:57:11.910Z,956.86
2017-11-08T14:59:05.216Z,956.86
2017-11-08T15:00:05.265Z,956.88
2017-11-08T15:01:58.658Z,956.92
2017-11-08T15:02:58.690Z,956.91
2017-11-08T15:04:53.761Z,956.90
2017-11-08T15:05:54.202Z,956.91
2017-11-08T15:07:47.125Z,956.85
2017-11-08T15:08:47.164Z,956.86
2017-11-08T15:11:41.663Z,956.87
2017-11-08T15:13:35.279Z,956.89
2017-11-08T15:14:38.124Z,956.91
2017-11-08T15:16:28.698Z,956.94
2017-11-08T15:17:29.028Z,956.95
2017-11-08T15:19:22.250Z,956.97
2017-11-08T15:20:22.081Z,956.93
2017-11-08T15:22:16.827Z,956.96
2017-11-08T15:25:09.458Z,956.99
2017-11-08T15:26:09.482Z,956.97
2017-11-08T15:28:02.876Z,957.00
2017-11-08T15:29:02.758Z,957.07
2017-11-08T15:30:56.125Z,957.07
2017-11-08T15:31:56.145Z,957.05
2017-11-08T15:33:52.209Z,957.08
2017-11-08T15:34:49.511Z,957.09
2017-11-08T15:36:43.915Z,957.14
2017-11-08T15:37:43.952Z,957.15
2017-11-08T15:39:38.013Z,957.24
2017-11-08T15:40:37.282Z,957.23
2017-11-08T15:42:30.709Z,957.21
2017-11-08T15:43:30.689Z,957.19
2017-11-08T15:45:24.057Z,957.24
2017-11-08T15:46:24.075Z,957.23
2017-11-08T15:48:19.412Z,957.23
2017-11-08T15:49:17.500Z,957.25
2017-11-08T15:51:10.876Z,957.21
2017-11-08T15:52:11.519Z,957.24
2017-11-08T15:54:04.283Z,957.23
2017-11-08T15:55:04.297Z,957.27
2017-11-08T15:56:57.663Z,957.30
2017-11-08T15:57:57.676Z,957.28
2017-11-08T15:59:51.181Z,957.31
2017-11-08T16:00:51.110Z,957.29
2017-11-08T16:02:44.442Z,957.30
2017-11-08T16:03:44.438Z,957.34
2017-11-08T16:05:38.929Z,957.31
2017-11-08T16:06:39.023Z,957.34
2017-11-08T16:08:32.247Z,957.36
2017-11-08T16:09:32.269Z,957.33
2017-11-08T16:11:25.661Z,957.33
2017-11-08T16:12:25.672Z,957.31
2017-11-08T16:14:19.868Z,957.33
2017-11-08T16:15:19.881Z,957.34
2017-11-08T16:17:13.308Z,957.31
2017-11-08T16:18:13.283Z,957.30
2017-11-08T16:20:06.682Z,957.24
2017-11-08T16:21:06.687Z,957.24
2017-11-08T16:23:00.075Z,957.24
2017-11-08T16:24:00.084Z,957.22
2017-11-08T16:25:53.497Z,957.25
2017-11-08T16:26:53.486Z,957.25
2017-11-08T16:28:46.839Z,957.28
2017-11-08T16:29:46.849Z,957.28
2017-11-08T16:31:40.250Z,957.27
2017-11-08T16:32:40.374Z,957.27
2017-11-08T16:34:35.279Z,957.26
2017-11-08T16:35:33.682Z,957.27
2017-11-08T16:37:27.127Z,957.23
2017-11-08T16:38:27.081Z,957.21
2017-11-08T16:40:20.406Z,957.24
2017-11-08T16:41:20.425Z,957.26
2017-11-08T16:43:13.816Z,957.27
2017-11-08T16:44:13.949Z,957.33
2017-11-08T16:46:07.191Z,957.38
2017-11-08T16:47:07.197Z,957.40
2017-11-08T16:49:00.708Z,957.43
2017-11-08T16:50:00.702Z,957.40
2017-11-08T16:51:55.053Z,957.40
2017-11-08T16:52:55.063Z,957.42
2017-11-08T16:54:48.532Z,957.43
2017-11-08T16:55:48.516Z,957.44
2017-11-08T16:57:42.854Z,957.40
2017-11-08T16:58:42.924Z,957.38
2017-11-08T17:00:38.329Z,957.41
2017-11-08T17:01:38.454Z,957.39
2017-11-08T17:03:31.592Z,957.40
2017-11-08T17:04:31.680Z,957.42
2017-11-08T17:06:25.169Z,957.40
2017-11-08T17:07:25.051Z,957.43
2017-11-08T17:09:18.517Z,957.44
2017-11-08T17:10:18.422Z,957.43
2017-11-08T17:12:12.865Z,957.47
2017-11-08T17:13:12.885Z,957.47
2017-11-08T17:15:08.252Z,957.49
2017-11-08T17:16:08.206Z,957.50
2017-11-08T17:18:01.624Z,957.50
2017-11-08T17:19:01.627Z,957.50
2017-11-08T17:20:55.038Z,957.51
2017-11-08T17:21:54.991Z,957.53
2017-11-08T17:23:48.441Z,957.50
2017-11-08T17:24:48.448Z,957.52
2017-11-08T17:26:41.822Z,957.53
2017-11-08T17:27:41.831Z,957.54
2017-11-08T17:29:35.167Z,957.55
2017-11-08T17:30:35.166Z,957.55
2017-11-08T17:32:28.530Z,957.58
2017-11-08T17:33:28.601Z,957.57
2017-11-08T17:35:22.006Z,957.62
2017-11-08T17:36:21.944Z,957.58
2017-11-08T17:38:15.353Z,957.63
2017-11-08T17:39:15.361Z,957.61
2017-11-08T17:41:09.744Z,957.64
2017-11-08T17:42:09.747Z,957.66
2017-11-08T17:44:03.129Z,957.64
2017-11-08T17:45:03.159Z,957.68
2017-11-08T17:46:56.538Z,957.68
2017-11-08T17:47:56.554Z,957.70
2017-11-08T17:49:49.939Z,957.67
2017-11-08T17:50:49.941Z,957.71
2017-11-08T17:52:44.309Z,957.73
2017-11-08T17:53:44.321Z,957.76
2017-11-08T17:55:37.712Z,957.79
2017-11-08T17:56:37.702Z,957.82
2017-11-08T17:58:31.100Z,957.82
2017-11-08T17:59:31.410Z,957.83
2017-11-08T18:01:24.544Z,957.83
2017-11-08T18:02:24.579Z,957.85
2017-11-08T18:04:17.891Z,957.90
2017-11-08T18:05:17.956Z,957.86
2017-11-08T18:07:11.372Z,957.87